createdAt,value
2022-08-03T00:02:16.828Z,83.26
2022-08-03T00:06:18.560Z,81.33
2022-08-03T00:10:20.195Z,79.50
2022-08-03T00:14:21.760Z,78.07
2022-08-03T00:18:23.382Z,79.01
2022-08-03T00:22:24.905Z,80.83
2022-08-03T00:26:26.495Z,83.68
2022-08-03T00:30:30.921Z,90.85
2022-08-03T00:34:57.254Z,90.94
2022-08-03T00:38:54.520Z,94.62
2022-08-03T00:43:04.274Z,93.58
2022-08-03T00:47:05.845Z,93.98
2022-08-03T00:51:07.470Z,94.00
2022-08-03T00:55:10.210Z,96.09
2022-08-03T00:59:12.054Z,95.55
2022-08-03T01:03:16.020Z,98.38
2022-08-03T01:07:23.008Z,99.31
2022-08-03T01:12:00.266Z,100.00
2022-08-03T01:16:06.051Z,94.05
2022-08-03T01:20:10.577Z,98.01
2022-08-03T01:24:20.193Z,99.02
2022-08-03T01:28:56.755Z,100.00
2022-08-03T01:33:08.760Z,97.91
2022-08-03T01:37:12.910Z,100.00
2022-08-03T01:41:20.077Z,99.57
2022-08-03T01:45:22.586Z,97.15
2022-08-03T01:49:24.721Z,94.54
2022-08-03T01:53:28.669Z,91.84
2022-08-03T01:57:30.741Z,90.32
2022-08-03T02:02:27.972Z,87.21
2022-08-03T02:06:11.723Z,87.38
2022-08-03T02:10:34.884Z,88.09
2022-08-03T02:14:40.723Z,88.41
2022-08-03T02:18:42.287Z,89.12
2022-08-03T02:22:44.872Z,91.29
2022-08-03T02:26:46.926Z,91.58
2022-08-03T02:30:53.995Z,92.02
2022-08-03T02:34:57.885Z,93.67
2022-08-03T02:39:01.487Z,94.17
2022-08-03T02:43:08.830Z,94.32
2022-08-03T02:47:11.881Z,95.02
2022-08-03T02:51:14.648Z,94.29
2022-08-03T02:55:16.634Z,94.30
2022-08-03T02:59:19.356Z,96.42
2022-08-03T03:03:22.049Z,97.63
2022-08-03T03:07:23.833Z,98.61
2022-08-03T03:11:29.532Z,97.93
2022-08-03T03:15:35.721Z,99.83
2022-08-03T03:19:39.824Z,99.87
2022-08-03T03:23:42.016Z,100.00
2022-08-03T03:27:44.103Z,100.00
2022-08-03T03:31:51.355Z,100.00
2022-08-03T03:35:53.593Z,100.00
2022-08-03T03:39:55.181Z,100.00
2022-08-03T03:43:56.777Z,100.00
2022-08-03T03:48:00.504Z,100.00
2022-08-03T03:52:01.954Z,100.00
2022-08-03T03:56:03.678Z,100.00
2022-08-03T04:00:06.300Z,100.00
2022-08-03T04:04:26.627Z,100.00
2022-08-03T04:08:46.791Z,100.00
2022-08-03T04:12:53.016Z,99.16
2022-08-03T04:17:01.650Z,98.19
2022-08-03T04:21:05.866Z,97.13
2022-08-03T04:25:10.369Z,98.22
2022-08-03T04:29:13.669Z,82.33
2022-08-03T04:33:17.389Z,64.63
2022-08-03T04:37:35.502Z,57.17
2022-08-03T04:42:06.954Z,64.01
2022-08-03T04:46:02.466Z,56.90
2022-08-03T04:50:09.176Z,52.33
2022-08-03T04:54:13.873Z,47.71
2022-08-03T04:58:15.340Z,44.75
2022-08-03T05:02:17.162Z,52.95
2022-08-03T05:06:18.926Z,46.06
2022-08-03T05:10:23.020Z,52.02
2022-08-03T05:14:27.964Z,47.35
2022-08-03T05:18:29.854Z,47.48
2022-08-03T05:22:31.389Z,47.35
2022-08-03T05:26:32.838Z,52.03
2022-08-03T05:30:34.635Z,56.91
2022-08-03T05:34:36.300Z,64.17
2022-08-03T05:38:37.940Z,65.92
2022-08-03T05:42:39.412Z,65.31
2022-08-03T05:46:40.888Z,66.27
2022-08-03T05:50:43.003Z,67.00
2022-08-03T05:54:57.347Z,70.34
2022-08-03T05:59:11.397Z,68.03
2022-08-03T06:03:21.174Z,67.81
2022-08-03T06:07:23.876Z,67.60
2022-08-03T06:11:25.342Z,62.75
2022-08-03T06:15:26.839Z,62.94
2022-08-03T06:19:28.380Z,61.79
2022-08-03T06:23:54.702Z,59.89
2022-08-03T06:27:51.487Z,59.37
2022-08-03T06:31:53.093Z,55.19
2022-08-03T06:35:54.562Z,56.31
2022-08-03T06:39:56.067Z,55.17
2022-08-03T06:44:03.411Z,55.71
2022-08-03T06:48:07.999Z,54.09
2022-08-03T06:52:09.568Z,53.58
2022-08-03T06:56:11.137Z,53.48
2022-08-03T07:00:13.150Z,52.31
2022-08-03T07:04:14.651Z,53.18
2022-08-03T07:08:16.329Z,51.13
2022-08-03T07:12:18.165Z,52.19
2022-08-03T07:16:20.068Z,50.68
2022-08-03T07:20:21.519Z,49.28
2022-08-03T07:24:22.993Z,49.14
2022-08-03T07:28:24.411Z,48.66
2022-08-03T07:32:26.450Z,47.16
2022-08-03T07:36:29.019Z,48.79
2022-08-03T07:40:31.726Z,46.70
2022-08-03T07:44:33.555Z,47.20
2022-08-03T07:48:35.001Z,45.67
2022-08-03T07:52:49.255Z,44.93
2022-08-03T07:56:50.691Z,45.22
2022-08-03T08:00:53.169Z,46.18
2022-08-03T08:04:54.964Z,44.96
2022-08-03T08:09:01.660Z,45.25
2022-08-03T08:13:04.240Z,44.17
2022-08-03T08:17:07.393Z,44.05
2022-08-03T08:21:10.186Z,44.44
2022-08-03T08:25:11.907Z,43.18
2022-08-03T08:29:13.413Z,44.26
2022-08-03T08:33:23.556Z,42.36
2022-08-03T08:37:25.368Z,42.06
2022-08-03T08:41:32.058Z,42.37
2022-08-03T08:45:34.080Z,40.54
2022-08-03T08:49:38.361Z,39.96
2022-08-03T08:53:44.153Z,40.52
2022-08-03T08:57:49.396Z,40.36
2022-08-03T09:01:50.917Z,38.92
2022-08-03T09:05:56.140Z,40.76
2022-08-03T09:10:10.391Z,40.27
2022-08-03T09:14:36.678Z,38.34
2022-08-03T09:18:36.704Z,38.86
2022-08-03T09:23:24.703Z,38.01
2022-08-03T09:27:27.060Z,38.02
2022-08-03T09:31:32.227Z,37.21
2022-08-03T09:35:57.447Z,36.74
2022-08-03T09:39:59.400Z,37.81
2022-08-03T09:44:00.914Z,36.51
2022-08-03T09:48:22.896Z,36.68
2022-08-03T09:52:39.152Z,38.09
2022-08-03T09:56:52.515Z,35.44
2022-08-03T10:01:03.738Z,36.99
2022-08-03T10:05:08.227Z,35.99
2022-08-03T10:09:12.724Z,35.38
2022-08-03T10:13:15.619Z,36.58
2022-08-03T10:17:17.328Z,36.50
2022-08-03T10:21:20.099Z,36.98
2022-08-03T10:25:22.088Z,36.12
2022-08-03T10:29:39.644Z,36.97
2022-08-03T10:33:51.329Z,36.18
2022-08-03T10:38:04.935Z,36.09
2022-08-03T10:42:14.447Z,36.00
2022-08-03T10:46:21.121Z,34.60
2022-08-03T10:50:24.929Z,35.16
2022-08-03T10:54:35.263Z,34.81
2022-08-03T10:58:36.816Z,36.54
2022-08-03T11:03:16.066Z,35.12
2022-08-03T11:07:23.124Z,35.75
2022-08-03T11:11:26.342Z,35.39
2022-08-03T11:15:33.557Z,35.66
2022-08-03T11:19:57.227Z,34.80
2022-08-03T11:24:02.642Z,34.95
2022-08-03T11:28:27.116Z,35.47
2022-08-03T11:32:37.754Z,35.79
2022-08-03T11:37:17.817Z,34.64
2022-08-03T11:41:42.726Z,34.97
2022-08-03T11:45:57.035Z,34.20
2022-08-03T11:50:01.869Z,33.77
2022-08-03T11:54:05.788Z,34.13
2022-08-03T11:59:19.012Z,33.64
2022-08-03T12:02:28.896Z,32.98
2022-08-03T12:06:30.677Z,33.06
2022-08-03T12:10:32.436Z,33.60
2022-08-03T12:14:48.238Z,33.85
2022-08-03T12:19:02.123Z,33.31
2022-08-03T12:23:09.562Z,34.05
2022-08-03T12:27:11.201Z,32.38
2022-08-03T12:31:13.624Z,34.49
2022-08-03T12:35:24.725Z,33.66
2022-08-03T12:39:31.018Z,33.05
2022-08-03T12:43:37.582Z,32.59
2022-08-03T12:47:57.971Z,33.21
2022-08-03T12:52:04.075Z,32.26
2022-08-03T12:56:08.960Z,33.53
2022-08-03T13:00:21.514Z,31.88
2022-08-03T13:04:36.574Z,41.13
2022-08-03T13:08:38.465Z,42.49
2022-08-03T13:12:48.243Z,40.76
2022-08-03T13:16:49.827Z,43.74
2022-08-03T13:20:51.313Z,44.98
2022-08-03T13:24:58.141Z,45.50
2022-08-03T13:28:59.605Z,45.23
2022-08-03T13:33:01.203Z,43.32
2022-08-03T13:37:10.529Z,43.95
2022-08-03T13:41:15.510Z,45.08
2022-08-03T13:45:17.757Z,45.19
2022-08-03T13:49:19.572Z,45.02
2022-08-03T13:53:21.223Z,43.84
2022-08-03T13:58:06.400Z,45.38
2022-08-03T14:01:55.065Z,48.00
2022-08-03T14:05:57.352Z,44.27
2022-08-03T14:09:58.819Z,43.97
2022-08-03T14:14:00.370Z,47.44
2022-08-03T14:18:01.828Z,45.21
2022-08-03T14:22:06.622Z,46.75
2022-08-03T14:26:09.394Z,48.26
2022-08-03T14:30:11.726Z,45.39
2022-08-03T14:34:13.174Z,46.17
2022-08-03T14:38:14.924Z,43.78
2022-08-03T14:42:16.872Z,43.13
2022-08-03T14:46:18.418Z,46.48
2022-08-03T14:50:32.572Z,45.32
2022-08-03T14:54:40.860Z,46.50
2022-08-03T14:58:42.423Z,45.63
2022-08-03T15:02:43.946Z,44.96
2022-08-03T15:06:45.501Z,44.50
2022-08-03T15:10:55.714Z,42.73
2022-08-03T15:14:57.339Z,43.00
2022-08-03T15:18:58.986Z,43.91
2022-08-03T15:23:00.478Z,42.48
2022-08-03T15:27:01.985Z,43.12
2022-08-03T15:31:07.937Z,44.22
2022-08-03T15:35:09.453Z,44.69
2022-08-03T15:39:10.954Z,44.11
2022-08-03T15:43:12.557Z,44.12
2022-08-03T15:47:14.028Z,44.46
2022-08-03T15:51:15.708Z,43.81
2022-08-03T15:55:17.364Z,43.98
2022-08-03T15:59:19.852Z,43.70
2022-08-03T16:03:21.539Z,42.04
2022-08-03T16:07:41.996Z,40.91
2022-08-03T16:12:03.519Z,43.18
2022-08-03T16:16:04.981Z,41.48
